sensor_id;sensor_type;location;lat;lon;timestamp;pressure;altitude;pressure_sealevel;temperature;humidity
10988;BME280;5547;42.672;23.230;2022-08-23T00:01:27;92956.09;;;14.99;100.00
10988;BME280;5547;42.672;23.230;2022-08-23T00:03:54;92932.63;;;14.71;100.00
10988;BME280;5547;42.672;23.230;2022-08-23T00:06:21;92942.19;;;14.82;100.00
10988;BME280;5547;42.672;23.230;2022-08-23T00:08:47;92953.34;;;14.80;100.00
10988;BME280;5547;42.672;23.230;2022-08-23T00:11:31;92952.72;;;14.76;100.00
10988;BME280;5547;42.672;23.230;2022-08-23T00:13:59;92940.19;;;14.64;100.00
10988;BME280;5547;42.672;23.230;2022-08-23T00:16:25;92945.97;;;14.62;100.00
10988;BME280;5547;42.672;23.230;2022-08-23T00:18:50;92956.59;;;14.75;100.00
10988;BME280;5547;42.672;23.230;2022-08-23T00:21:16;92893.34;;;14.37;100.00
10988;BME280;5547;42.672;23.230;2022-08-23T00:23:41;92960.31;;;14.78;100.00
10988;BME280;5547;42.672;23.230;2022-08-23T00:26:07;92961.38;;;14.80;100.00
10988;BME280;5547;42.672;23.230;2022-08-23T00:28:32;92953.34;;;14.80;100.00
10988;BME280;5547;42.672;23.230;2022-08-23T00:30:58;92962.41;;;14.83;100.00
10988;BME280;5547;42.672;23.230;2022-08-23T00:33:24;92957.47;;;14.72;100.00
10988;BME280;5547;42.672;23.230;2022-08-23T00:35:50;92906.97;;;14.30;100.00
10988;BME280;5547;42.672;23.230;2022-08-23T00:38:16;92939.94;;;14.49;100.00
10988;BME280;5547;42.672;23.230;2022-08-23T00:40:46;92955.63;;;14.60;100.00
10988;BME280;5547;42.672;23.230;2022-08-23T00:43:15;92932.13;;;14.33;100.00
10988;BME280;5547;42.672;23.230;2022-08-23T00:49:11;92938.06;;;14.37;100.00
10988;BME280;5547;42.672;23.230;2022-08-23T00:51:46;92891.13;;;14.14;100.00
10988;BME280;5547;42.672;23.230;2022-08-23T00:54:13;92895.03;;;14.22;100.00
10988;BME280;5547;42.672;23.230;2022-08-23T00:56:40;92904.28;;;14.30;100.00
10988;BME280;5547;42.672;23.230;2022-08-23T00:59:07;92879.38;;;14.11;100.00
10988;BME280;5547;42.672;23.230;2022-08-23T01:01:33;92951.03;;;14.60;100.00
10988;BME280;5547;42.672;23.230;2022-08-23T01:03:58;92966.56;;;14.75;100.00
10988;BME280;5547;42.672;23.230;2022-08-23T01:06:29;92970.09;;;14.71;100.00
10988;BME280;5547;42.672;23.230;2022-08-23T01:09:03;92968.31;;;14.68;100.00
10988;BME280;5547;42.672;23.230;2022-08-23T01:12:07;92961.47;;;14.67;100.00
10988;BME280;5547;42.672;23.230;2022-08-23T01:14:43;92922.00;;;14.37;100.00
10988;BME280;5547;42.672;23.230;2022-08-23T01:17:19;92956.59;;;14.53;100.00
10988;BME280;5547;42.672;23.230;2022-08-23T01:19:59;92961.84;;;14.57;100.00
10988;BME280;5547;42.672;23.230;2022-08-23T01:22:33;92961.09;;;14.56;100.00
10988;BME280;5547;42.672;23.230;2022-08-23T01:25:04;92966.38;;;14.47;100.00
10988;BME280;5547;42.672;23.230;2022-08-23T01:27:30;92962.66;;;14.44;100.00
10988;BME280;5547;42.672;23.230;2022-08-23T01:29:55;92896.16;;;13.90;100.00
10988;BME280;5547;42.672;23.230;2022-08-23T01:32:21;92967.81;;;14.39;100.00
10988;BME280;5547;42.672;23.230;2022-08-23T01:34:47;92926.50;;;14.18;100.00
10988;BME280;5547;42.672;23.230;2022-08-23T01:37:12;92979.09;;;14.56;100.00
10988;BME280;5547;42.672;23.230;2022-08-23T01:39:38;92951.19;;;14.44;100.00
10988;BME280;5547;42.672;23.230;2022-08-23T01:42:04;92964.09;;;14.58;100.00
10988;BME280;5547;42.672;23.230;2022-08-23T01:44:30;92950.63;;;14.49;100.00
10988;BME280;5547;42.672;23.230;2022-08-23T01:46:56;92873.66;;;14.00;100.00
10988;BME280;5547;42.672;23.230;2022-08-23T01:49:21;92950.41;;;14.56;100.00
10988;BME280;5547;42.672;23.230;2022-08-23T01:51:46;92961.94;;;14.75;100.00
10988;BME280;5547;42.672;23.230;2022-08-23T01:54:12;92963.00;;;14.78;100.00
10988;BME280;5547;42.672;23.230;2022-08-23T01:56:38;92870.72;;;14.07;100.00
10988;BME280;5547;42.672;23.230;2022-08-23T01:59:08;92940.06;;;14.67;100.00
10988;BME280;5547;42.672;23.230;2022-08-23T02:01:34;92965.19;;;15.01;100.00
10988;BME280;5547;42.672;23.230;2022-08-23T02:03:59;92954.22;;;15.18;100.00
10988;BME280;5547;42.672;23.230;2022-08-23T02:06:26;92924.41;;;14.97;100.00
10988;BME280;5547;42.672;23.230;2022-08-23T02:08:52;92953.34;;;15.21;100.00
10988;BME280;5547;42.672;23.230;2022-08-23T02:11:32;92908.31;;;14.97;100.00
10988;BME280;5547;42.672;23.230;2022-08-23T02:13:59;92891.66;;;14.93;100.00
10988;BME280;5547;42.672;23.230;2022-08-23T02:16:29;92945.47;;;15.26;100.00
10988;BME280;5547;42.672;23.230;2022-08-23T02:18:55;92949.06;;;15.32;100.00
10988;BME280;5547;42.672;23.230;2022-08-23T02:21:22;92910.44;;;15.02;100.00
10988;BME280;5547;42.672;23.230;2022-08-23T02:23:48;92926.66;;;15.08;100.00
10988;BME280;5547;42.672;23.230;2022-08-23T02:26:16;92852.44;;;14.59;100.00
10988;BME280;5547;42.672;23.230;2022-08-23T02:28:41;92948.88;;;15.27;100.00
10988;BME280;5547;42.672;23.230;2022-08-23T02:31:07;92948.91;;;15.36;100.00
10988;BME280;5547;42.672;23.230;2022-08-23T02:33:32;92948.47;;;15.38;100.00
10988;BME280;5547;42.672;23.230;2022-08-23T02:35:58;92946.25;;;15.36;100.00
10988;BME280;5547;42.672;23.230;2022-08-23T02:38:23;92941.78;;;15.33;100.00
10988;BME280;5547;42.672;23.230;2022-08-23T02:40:49;92945.06;;;15.37;100.00
10988;BME280;5547;42.672;23.230;2022-08-23T02:43:14;92943.28;;;15.52;100.00
10988;BME280;5547;42.672;23.230;2022-08-23T02:45:40;92917.94;;;15.26;100.00
10988;BME280;5547;42.672;23.230;2022-08-23T02:48:06;92944.50;;;15.51;99.06
10988;BME280;5547;42.672;23.230;2022-08-23T02:50:33;92944.16;;;15.40;100.00
10988;BME280;5547;42.672;23.230;2022-08-23T02:52:58;92871.25;;;14.77;100.00
10988;BME280;5547;42.672;23.230;2022-08-23T02:55:24;92942.38;;;15.28;99.32
10988;BME280;5547;42.672;23.230;2022-08-23T02:57:49;92889.00;;;14.93;100.00
10988;BME280;5547;42.672;23.230;2022-08-23T03:00:16;92928.19;;;15.09;100.00
10988;BME280;5547;42.672;23.230;2022-08-23T03:02:42;92940.66;;;15.12;100.00
10988;BME280;5547;42.672;23.230;2022-08-23T03:05:09;92926.59;;;14.89;100.00
10988;BME280;5547;42.672;23.230;2022-08-23T03:07:34;92915.13;;;14.80;100.00
10988;BME280;5547;42.672;23.230;2022-08-23T03:10:00;92945.97;;;14.94;100.00
10988;BME280;5547;42.672;23.230;2022-08-23T03:12:26;92937.47;;;14.86;100.00
10988;BME280;5547;42.672;23.230;2022-08-23T03:14:52;92940.69;;;14.81;100.00
10988;BME280;5547;42.672;23.230;2022-08-23T03:17:18;92921.59;;;14.60;100.00
10988;BME280;5547;42.672;23.230;2022-08-23T03:19:44;92933.19;;;14.66;100.00
10988;BME280;5547;42.672;23.230;2022-08-23T03:22:09;92947.38;;;14.76;100.00
10988;BME280;5547;42.672;23.230;2022-08-23T03:24:35;92891.78;;;14.49;100.00
10988;BME280;5547;42.672;23.230;2022-08-23T03:27:00;92887.53;;;14.39;100.00
10988;BME280;5547;42.672;23.230;2022-08-23T03:29:27;92953.50;;;14.77;100.00
10988;BME280;5547;42.672;23.230;2022-08-23T03:31:52;92951.97;;;14.76;100.00
10988;BME280;5547;42.672;23.230;2022-08-23T03:34:18;92948.13;;;14.77;100.00
10988;BME280;5547;42.672;23.230;2022-08-23T03:36:43;92948.88;;;14.77;100.00
10988;BME280;5547;42.672;23.230;2022-08-23T03:39:09;92913.38;;;14.55;100.00
10988;BME280;5547;42.672;23.230;2022-08-23T03:41:34;92957.47;;;14.72;100.00
10988;BME280;5547;42.672;23.230;2022-08-23T03:43:59;92944.31;;;14.56;100.00
10988;BME280;5547;42.672;23.230;2022-08-23T03:46:25;92962.94;;;14.68;100.00
10988;BME280;5547;42.672;23.230;2022-08-23T03:48:55;92907.34;;;14.19;100.00
10988;BME280;5547;42.672;23.230;2022-08-23T03:51:24;92914.81;;;14.24;100.00
10988;BME280;5547;42.672;23.230;2022-08-23T03:53:51;92939.94;;;14.27;100.00
10988;BME280;5547;42.672;23.230;2022-08-23T03:56:25;93001.88;;;14.60;100.00
10988;BME280;5547;42.672;23.230;2022-08-23T03:58:52;92742.84;;;12.73;100.00
10988;BME280;5547;42.672;23.230;2022-08-23T04:01:17;93008.34;;;14.72;100.00
10988;BME280;5547;42.672;23.230;2022-08-23T04:03:43;93018.75;;;14.70;100.00
10988;BME280;5547;42.672;23.230;2022-08-23T04:06:09;93013.13;;;14.55;100.00
10988;BME280;5547;42.672;23.230;2022-08-23T04:08:35;93039.16;;;14.77;100.00
10988;BME280;5547;42.672;23.230;2022-08-23T04:11:01;93043.19;;;14.81;100.00
10988;BME280;5547;42.672;23.230;2022-08-23T04:13:27;93052.59;;;14.86;100.00
10988;BME280;5547;42.672;23.230;2022-08-23T04:15:54;92951.69;;;14.29;100.00
10988;BME280;5547;42.672;23.230;2022-08-23T04:18:20;92990.88;;;14.45;100.00
10988;BME280;5547;42.672;23.230;2022-08-23T04:20:46;93008.63;;;14.52;100.00
10988;BME280;5547;42.672;23.230;2022-08-23T04:23:11;92933.09;;;14.04;100.00
10988;BME280;5547;42.672;23.230;2022-08-23T04:25:37;93048.19;;;15.01;100.00
10988;BME280;5547;42.672;23.230;2022-08-23T04:28:03;93006.47;;;14.82;100.00
10988;BME280;5547;42.672;23.230;2022-08-23T04:30:31;92988.53;;;14.69;100.00
10988;BME280;5547;42.672;23.230;2022-08-23T04:32:57;93040.84;;;15.15;100.00
10988;BME280;5547;42.672;23.230;2022-08-23T04:35:23;92995.16;;;14.87;100.00
10988;BME280;5547;42.672;23.230;2022-08-23T04:37:50;92996.66;;;14.88;100.00
10988;BME280;5547;42.672;23.230;2022-08-23T04:40:15;93040.88;;;15.24;100.00
10988;BME280;5547;42.672;23.230;2022-08-23T04:43:00;93023.88;;;15.18;100.00
10988;BME280;5547;42.672;23.230;2022-08-23T04:45:25;93039.13;;;15.30;100.00
10988;BME280;5547;42.672;23.230;2022-08-23T04:47:51;93032.44;;;15.34;100.00
10988;BME280;5547;42.672;23.230;2022-08-23T04:50:17;93032.00;;;15.45;100.00
10988;BME280;5547;42.672;23.230;2022-08-23T04:52:43;93031.59;;;15.47;100.00
10988;BME280;5547;42.672;23.230;2022-08-23T04:55:09;93039.22;;;15.58;100.00
10988;BME280;5547;42.672;23.230;2022-08-23T04:57:35;93042.06;;;15.63;100.00
10988;BME280;5547;42.672;23.230;2022-08-23T05:00:00;93048.34;;;15.69;100.00
10988;BME280;5547;42.672;23.230;2022-08-23T05:02:26;93046.28;;;15.73;100.00
10988;BME280;5547;42.672;23.230;2022-08-23T05:04:52;92980.47;;;15.32;100.00
10988;BME280;5547;42.672;23.230;2022-08-23T05:07:18;93023.66;;;15.74;100.00
10988;BME280;5547;42.672;23.230;2022-08-23T05:09:43;93058.41;;;16.06;99.55
10988;BME280;5547;42.672;23.230;2022-08-23T05:12:09;92955.78;;;15.37;97.97
10988;BME280;5547;42.672;23.230;2022-08-23T05:14:35;93048.28;;;16.19;nan
10988;BME280;5547;42.672;23.230;2022-08-23T05:17:00;93011.91;;;16.09;97.47
10988;BME280;5547;42.672;23.230;2022-08-23T05:19:26;93025.66;;;16.20;94.21
10988;BME280;5547;42.672;23.230;2022-08-23T05:21:52;93049.94;;;16.44;94.75
10988;BME280;5547;42.672;23.230;2022-08-23T05:24:17;93061.28;;;16.39;94.61
10988;BME280;5547;42.672;23.230;2022-08-23T05:26:43;93072.44;;;16.65;93.48
10988;BME280;5547;42.672;23.230;2022-08-23T05:29:08;93078.72;;;16.62;93.87
10988;BME280;5547;42.672;23.230;2022-08-23T05:31:33;93055.16;;;16.66;94.81
10988;BME280;5547;42.672;23.230;2022-08-23T05:33:59;93046.63;;;16.77;94.62
10988;BME280;5547;42.672;23.230;2022-08-23T05:36:24;93085.25;;;17.16;93.94
10988;BME280;5547;42.672;23.230;2022-08-23T05:38:50;93083.38;;;17.41;93.31
10988;BME280;5547;42.672;23.230;2022-08-23T05:41:17;93061.41;;;17.00;91.88
10988;BME280;5547;42.672;23.230;2022-08-23T05:43:43;93035.13;;;16.95;92.40
10988;BME280;5547;42.672;23.230;2022-08-23T05:46:14;93059.50;;;17.43;89.91
10988;BME280;5547;42.672;23.230;2022-08-23T05:48:42;93035.34;;;17.25;90.78
10988;BME280;5547;42.672;23.230;2022-08-23T05:51:15;93060.09;;;17.38;89.21
10988;BME280;5547;42.672;23.230;2022-08-23T05:53:42;93061.88;;;16.89;89.35
10988;BME280;5547;42.672;23.230;2022-08-23T05:58:42;93045.53;;;17.20;90.05
10988;BME280;5547;42.672;23.230;2022-08-23T06:01:08;93066.13;;;17.14;88.60
10988;BME280;5547;42.672;23.230;2022-08-23T06:03:34;93091.38;;;17.59;88.31
10988;BME280;5547;42.672;23.230;2022-08-23T06:06:00;93100.31;;;17.75;86.27
10988;BME280;5547;42.672;23.230;2022-08-23T06:08:26;93104.81;;;18.02;85.40
10988;BME280;5547;42.672;23.230;2022-08-23T06:11:00;93106.66;;;18.20;83.50
10988;BME280;5547;42.672;23.230;2022-08-23T06:13:26;93086.13;;;18.08;83.76
10988;BME280;5547;42.672;23.230;2022-08-23T06:15:51;92900.16;;;17.09;84.94
10988;BME280;5547;42.672;23.230;2022-08-23T06:18:17;93110.03;;;18.78;80.63
10988;BME280;5547;42.672;23.230;2022-08-23T06:20:42;93114.53;;;18.81;81.58
10988;BME280;5547;42.672;23.230;2022-08-23T06:23:07;93116.53;;;18.47;82.82
10988;BME280;5547;42.672;23.230;2022-08-23T06:25:38;93117.81;;;18.76;81.51
10988;BME280;5547;42.672;23.230;2022-08-23T06:28:03;93115.53;;;18.83;81.16
10988;BME280;5547;42.672;23.230;2022-08-23T06:30:29;93119.91;;;18.96;77.97
10988;BME280;5547;42.672;23.230;2022-08-23T06:32:55;93053.16;;;18.37;80.08
10988;BME280;5547;42.672;23.230;2022-08-23T06:35:20;93079.84;;;18.50;82.56
10988;BME280;5547;42.672;23.230;2022-08-23T06:37:45;93052.41;;;18.36;78.74
10988;BME280;5547;42.672;23.230;2022-08-23T06:40:11;93045.13;;;18.52;81.23
10988;BME280;5547;42.672;23.230;2022-08-23T06:42:36;93101.63;;;19.00;80.47
10988;BME280;5547;42.672;23.230;2022-08-23T06:45:03;93122.94;;;19.42;78.76
10988;BME280;5547;42.672;23.230;2022-08-23T06:47:28;93116.69;;;19.81;75.46
10988;BME280;5547;42.672;23.230;2022-08-23T06:49:54;93062.34;;;20.08;75.00
10988;BME280;5547;42.672;23.230;2022-08-23T06:52:19;93026.78;;;19.89;71.74
10988;BME280;5547;42.672;23.230;2022-08-23T06:54:45;93128.47;;;20.33;72.53
10988;BME280;5547;42.672;23.230;2022-08-23T06:57:11;93122.25;;;19.92;76.01
10988;BME280;5547;42.672;23.230;2022-08-23T06:59:38;93133.16;;;19.83;74.58
10988;BME280;5547;42.672;23.230;2022-08-23T07:02:05;93077.06;;;19.42;74.68
10988;BME280;5547;42.672;23.230;2022-08-23T07:04:34;93088.16;;;19.29;75.03
10988;BME280;5547;42.672;23.230;2022-08-23T07:07:02;93125.97;;;19.94;74.18
10988;BME280;5547;42.672;23.230;2022-08-23T07:09:29;93104.06;;;20.07;72.51
10988;BME280;5547;42.672;23.230;2022-08-23T07:11:55;92925.22;;;18.71;72.55
10988;BME280;5547;42.672;23.230;2022-08-23T07:14:23;93113.31;;;20.21;72.75
10988;BME280;5547;42.672;23.230;2022-08-23T07:16:51;93125.41;;;20.61;71.76
10988;BME280;5547;42.672;23.230;2022-08-23T07:19:18;93126.25;;;20.52;71.06
10988;BME280;5547;42.672;23.230;2022-08-23T07:21:45;93062.44;;;19.79;73.72
10988;BME280;5547;42.672;23.230;2022-08-23T07:24:11;93091.41;;;19.78;75.60
10988;BME280;5547;42.672;23.230;2022-08-23T07:26:38;93130.97;;;20.02;76.57
10988;BME280;5547;42.672;23.230;2022-08-23T07:29:08;93126.16;;;19.91;74.97
10988;BME280;5547;42.672;23.230;2022-08-23T07:31:39;93102.56;;;20.06;73.54
10988;BME280;5547;42.672;23.230;2022-08-23T07:34:06;93104.47;;;20.21;74.50
10988;BME280;5547;42.672;23.230;2022-08-23T07:36:32;93105.50;;;20.44;71.80
10988;BME280;5547;42.672;23.230;2022-08-23T07:38:59;93094.25;;;19.89;72.65
10988;BME280;5547;42.672;23.230;2022-08-23T07:41:28;92966.19;;;18.75;76.04
10988;BME280;5547;42.672;23.230;2022-08-23T07:43:58;93140.38;;;19.91;78.18
10988;BME280;5547;42.672;23.230;2022-08-23T07:46:26;93141.03;;;20.01;74.81
10988;BME280;5547;42.672;23.230;2022-08-23T07:48:52;93144.94;;;20.00;74.95
10988;BME280;5547;42.672;23.230;2022-08-23T07:51:18;93123.56;;;20.17;75.92
10988;BME280;5547;42.672;23.230;2022-08-23T07:53:45;93142.69;;;20.13;74.39
10988;BME280;5547;42.672;23.230;2022-08-23T07:56:13;93054.50;;;19.90;75.15
10988;BME280;5547;42.672;23.230;2022-08-23T07:58:39;93091.13;;;20.32;73.65
10988;BME280;5547;42.672;23.230;2022-08-23T08:01:34;93139.25;;;20.89;71.85
10988;BME280;5547;42.672;23.230;2022-08-23T08:04:02;93140.41;;;21.09;72.36
10988;BME280;5547;42.672;23.230;2022-08-23T08:06:39;93144.22;;;21.17;71.21
10988;BME280;5547;42.672;23.230;2022-08-23T08:09:05;93144.84;;;20.86;70.36
10988;BME280;5547;42.672;23.230;2022-08-23T08:11:32;93144.50;;;20.78;70.37
10988;BME280;5547;42.672;23.230;2022-08-23T08:13:58;93148.81;;;21.11;69.98
10988;BME280;5547;42.672;23.230;2022-08-23T08:16:32;93156.91;;;21.37;70.52
10988;BME280;5547;42.672;23.230;2022-08-23T08:19:00;93151.34;;;21.20;70.10
10988;BME280;5547;42.672;23.230;2022-08-23T08:21:27;93166.59;;;20.97;70.31
10988;BME280;5547;42.672;23.230;2022-08-23T08:23:54;93165.16;;;21.22;73.00
10988;BME280;5547;42.672;23.230;2022-08-23T08:26:20;93130.31;;;20.83;73.51
10988;BME280;5547;42.672;23.230;2022-08-23T08:28:47;93168.03;;;20.92;70.16
10988;BME280;5547;42.672;23.230;2022-08-23T08:31:12;93101.06;;;20.41;72.73
10988;BME280;5547;42.672;23.230;2022-08-23T08:33:39;93143.50;;;20.96;73.23
10988;BME280;5547;42.672;23.230;2022-08-23T08:36:05;93159.59;;;21.57;70.44
10988;BME280;5547;42.672;23.230;2022-08-23T08:38:32;93162.84;;;21.61;69.48
10988;BME280;5547;42.672;23.230;2022-08-23T08:41:07;93158.66;;;21.92;68.86
10988;BME280;5547;42.672;23.230;2022-08-23T08:48:48;93169.31;;;21.44;68.56
10988;BME280;5547;42.672;23.230;2022-08-23T08:51:40;93169.25;;;21.64;69.77
10988;BME280;5547;42.672;23.230;2022-08-23T08:54:12;93163.31;;;21.60;71.03
10988;BME280;5547;42.672;23.230;2022-08-23T08:56:39;93153.75;;;21.65;69.99
10988;BME280;5547;42.672;23.230;2022-08-23T08:59:10;93150.47;;;21.55;69.24
10988;BME280;5547;42.672;23.230;2022-08-23T09:01:38;93143.69;;;21.65;69.52
10988;BME280;5547;42.672;23.230;2022-08-23T09:04:04;93138.13;;;21.48;69.30
10988;BME280;5547;42.672;23.230;2022-08-23T09:10:43;93133.97;;;21.53;68.98
10988;BME280;5547;42.672;23.230;2022-08-23T09:15:27;93121.91;;;21.80;68.97
10988;BME280;5547;42.672;23.230;2022-08-23T09:18:04;93116.84;;;21.99;66.37
10988;BME280;5547;42.672;23.230;2022-08-23T09:20:32;93121.78;;;22.38;66.23
10988;BME280;5547;42.672;23.230;2022-08-23T09:23:07;93091.00;;;22.41;64.54
10988;BME280;5547;42.672;23.230;2022-08-23T09:25:33;93098.78;;;22.71;63.07
10988;BME280;5547;42.672;23.230;2022-08-23T09:27:59;93100.75;;;22.64;62.88
10988;BME280;5547;42.672;23.230;2022-08-23T09:30:46;93072.00;;;22.30;61.51
10988;BME280;5547;42.672;23.230;2022-08-23T09:33:21;93120.19;;;22.63;63.72
10988;BME280;5547;42.672;23.230;2022-08-23T09:36:05;93122.44;;;22.70;62.26
10988;BME280;5547;42.672;23.230;2022-08-23T09:38:31;93119.16;;;22.55;63.24
10988;BME280;5547;42.672;23.230;2022-08-23T09:40:57;93104.44;;;22.73;60.68
10988;BME280;5547;42.672;23.230;2022-08-23T09:43:25;93097.47;;;22.55;60.34
10988;BME280;5547;42.672;23.230;2022-08-23T09:48:42;93130.72;;;23.15;59.25
10988;BME280;5547;42.672;23.230;2022-08-23T09:53:50;93127.94;;;22.98;59.57
10988;BME280;5547;42.672;23.230;2022-08-23T09:56:22;93123.94;;;22.77;61.07
10988;BME280;5547;42.672;23.230;2022-08-23T09:58:49;93104.06;;;22.37;63.24
10988;BME280;5547;42.672;23.230;2022-08-23T10:01:23;93129.44;;;22.39;62.43
10988;BME280;5547;42.672;23.230;2022-08-23T10:04:14;93057.94;;;21.82;61.41
10988;BME280;5547;42.672;23.230;2022-08-23T10:06:42;93124.13;;;22.62;60.05
10988;BME280;5547;42.672;23.230;2022-08-23T10:09:23;93127.13;;;22.75;57.88
10988;BME280;5547;42.672;23.230;2022-08-23T10:11:49;93118.00;;;22.73;60.10
10988;BME280;5547;42.672;23.230;2022-08-23T10:14:19;93133.69;;;23.17;58.56
10988;BME280;5547;42.672;23.230;2022-08-23T10:21:06;93091.78;;;22.53;61.13
10988;BME280;5547;42.672;23.230;2022-08-23T10:25:50;93132.56;;;22.75;62.74
10988;BME280;5547;42.672;23.230;2022-08-23T10:28:44;93124.25;;;22.96;58.66
10988;BME280;5547;42.672;23.230;2022-08-23T10:34:49;93052.25;;;22.83;56.24
10988;BME280;5547;42.672;23.230;2022-08-23T10:40:25;93123.66;;;24.02;54.40
10988;BME280;5547;42.672;23.230;2022-08-23T10:45:37;93118.25;;;23.74;55.84
10988;BME280;5547;42.672;23.230;2022-08-23T10:48:46;93115.50;;;24.14;54.93
10988;BME280;5547;42.672;23.230;2022-08-23T10:51:38;93110.03;;;24.19;55.95
10988;BME280;5547;42.672;23.230;2022-08-23T10:54:09;93113.25;;;24.23;53.88
10988;BME280;5547;42.672;23.230;2022-08-23T10:56:37;93091.25;;;24.21;53.85
10988;BME280;5547;42.672;23.230;2022-08-23T10:59:09;93070.78;;;24.15;53.71
10988;BME280;5547;42.672;23.230;2022-08-23T11:01:58;93111.00;;;24.50;52.26
10988;BME280;5547;42.672;23.230;2022-08-23T11:07:24;93089.34;;;23.88;54.83
10988;BME280;5547;42.672;23.230;2022-08-23T11:13:00;93076.63;;;24.41;53.86
10988;BME280;5547;42.672;23.230;2022-08-23T11:15:38;93057.94;;;24.09;54.63
10988;BME280;5547;42.672;23.230;2022-08-23T11:18:10;93109.19;;;24.69;53.58
10988;BME280;5547;42.672;23.230;2022-08-23T11:23:36;93092.94;;;24.47;53.16
10988;BME280;5547;42.672;23.230;2022-08-23T11:26:05;93100.56;;;24.60;49.17
10988;BME280;5547;42.672;23.230;2022-08-23T11:28:44;93097.91;;;25.01;51.46
10988;BME280;5547;42.672;23.230;2022-08-23T11:34:02;93103.31;;;25.12;52.29
10988;BME280;5547;42.672;23.230;2022-08-23T11:36:31;93028.34;;;24.70;49.45
10988;BME280;5547;42.672;23.230;2022-08-23T11:46:49;93074.69;;;25.00;50.06
10988;BME280;5547;42.672;23.230;2022-08-23T11:55:22;93030.13;;;25.03;48.77
10988;BME280;5547;42.672;23.230;2022-08-23T12:08:50;93086.91;;;25.60;49.60
10988;BME280;5547;42.672;23.230;2022-08-23T12:11:17;93084.97;;;25.54;51.46
10988;BME280;5547;42.672;23.230;2022-08-23T12:13:54;93063.47;;;25.81;49.52
10988;BME280;5547;42.672;23.230;2022-08-23T12:21:31;93044.53;;;24.98;51.61
10988;BME280;5547;42.672;23.230;2022-08-23T12:24:30;93094.75;;;25.39;50.39
10988;BME280;5547;42.672;23.230;2022-08-23T12:29:56;93056.59;;;25.44;51.49
10988;BME280;5547;42.672;23.230;2022-08-23T12:38:24;93055.81;;;25.79;47.13
10988;BME280;5547;42.672;23.230;2022-08-23T12:40:57;93044.09;;;26.15;45.38
10988;BME280;5547;42.672;23.230;2022-08-23T12:43:28;93021.22;;;25.44;46.65
10988;BME280;5547;42.672;23.230;2022-08-23T12:45:57;93029.31;;;25.50;47.44
10988;BME280;5547;42.672;23.230;2022-08-23T12:48:26;93045.59;;;25.55;50.37
10988;BME280;5547;42.672;23.230;2022-08-23T12:51:00;93064.13;;;25.63;50.51
10988;BME280;5547;42.672;23.230;2022-08-23T12:56:04;93058.06;;;25.04;51.61
10988;BME280;5547;42.672;23.230;2022-08-23T12:58:32;93073.59;;;25.20;53.86
10988;BME280;5547;42.672;23.230;2022-08-23T13:01:00;93065.56;;;24.92;51.71
10988;BME280;5547;42.672;23.230;2022-08-23T13:03:32;93069.84;;;24.82;51.62
10988;BME280;5547;42.672;23.230;2022-08-23T13:06:05;93011.72;;;24.21;50.93
10988;BME280;5547;42.672;23.230;2022-08-23T13:08:38;93066.63;;;23.97;53.61
10988;BME280;5547;42.672;23.230;2022-08-23T13:11:06;93072.03;;;24.14;52.63
10988;BME280;5547;42.672;23.230;2022-08-23T13:13:33;93076.97;;;24.09;53.40
10988;BME280;5547;42.672;23.230;2022-08-23T13:16:02;93055.03;;;23.68;54.13
10988;BME280;5547;42.672;23.230;2022-08-23T13:18:46;93034.06;;;23.74;54.02
10988;BME280;5547;42.672;23.230;2022-08-23T13:21:30;93033.31;;;23.68;55.67
10988;BME280;5547;42.672;23.230;2022-08-23T13:24:01;93058.50;;;23.63;55.57
10988;BME280;5547;42.672;23.230;2022-08-23T13:26:46;93043.19;;;23.37;58.43
10988;BME280;5547;42.672;23.230;2022-08-23T13:31:59;93063.91;;;23.40;60.20
10988;BME280;5547;42.672;23.230;2022-08-23T13:34:38;93069.56;;;23.14;60.54
10988;BME280;5547;42.672;23.230;2022-08-23T13:40:19;93078.84;;;22.79;66.81
10988;BME280;5547;42.672;23.230;2022-08-23T13:42:49;93052.41;;;22.09;70.35
10988;BME280;5547;42.672;23.230;2022-08-23T13:45:34;93061.06;;;21.70;74.28
10988;BME280;5547;42.672;23.230;2022-08-23T13:50:35;93037.88;;;21.63;74.84
10988;BME280;5547;42.672;23.230;2022-08-23T13:53:03;92928.94;;;20.93;76.19
10988;BME280;5547;42.672;23.230;2022-08-23T13:55:29;93025.16;;;21.75;73.52
10988;BME280;5547;42.672;23.230;2022-08-23T13:57:55;93056.53;;;21.93;76.11
10988;BME280;5547;42.672;23.230;2022-08-23T14:00:22;93073.97;;;21.86;76.56
10988;BME280;5547;42.672;23.230;2022-08-23T14:02:48;93075.06;;;21.68;75.81
10988;BME280;5547;42.672;23.230;2022-08-23T14:05:16;93079.59;;;21.51;76.03
10988;BME280;5547;42.672;23.230;2022-08-23T14:07:43;93083.72;;;21.40;76.50
10988;BME280;5547;42.672;23.230;2022-08-23T14:10:11;93088.03;;;21.06;75.53
10988;BME280;5547;42.672;23.230;2022-08-23T14:12:36;93064.53;;;20.66;77.78
10988;BME280;5547;42.672;23.230;2022-08-23T14:15:03;93041.97;;;20.28;77.66
10988;BME280;5547;42.672;23.230;2022-08-23T14:17:34;93090.03;;;20.24;79.25
10988;BME280;5547;42.672;23.230;2022-08-23T14:20:03;93115.28;;;20.21;80.94
10988;BME280;5547;42.672;23.230;2022-08-23T14:22:30;93114.72;;;20.17;82.63
10988;BME280;5547;42.672;23.230;2022-08-23T14:24:56;93122.69;;;20.05;84.39
10988;BME280;5547;42.672;23.230;2022-08-23T14:27:21;93115.75;;;19.84;83.72
10988;BME280;5547;42.672;23.230;2022-08-23T14:29:46;93128.41;;;19.63;85.57
10988;BME280;5547;42.672;23.230;2022-08-23T14:32:12;93127.94;;;19.49;85.46
10988;BME280;5547;42.672;23.230;2022-08-23T14:34:37;93097.38;;;19.23;85.93
10988;BME280;5547;42.672;23.230;2022-08-23T14:37:03;93079.03;;;19.12;85.32
10988;BME280;5547;42.672;23.230;2022-08-23T14:39:28;93123.13;;;19.39;86.52
10988;BME280;5547;42.672;23.230;2022-08-23T14:41:54;93125.25;;;19.35;85.76
10988;BME280;5547;42.672;23.230;2022-08-23T14:44:19;93129.91;;;19.34;86.02